Time;durP1;ratioP1;P1;durP2;ratioP2;P2;SDS_P1;SDS_P2;PMS_P1;PMS_P2;Temp;Humidity;BMP_temperature;BMP_pressure;BME280_temperature;BME280_humidity;BME280_pressure;Samples;Min_cycle;Max_cycle;Signal;HPM_P1;HPM_P2
2021/04/23 00:00:41;;;;;;;12.43;9.75;;;;;;;11.20;70.46;99201.52;1737089;81;21396;-44
2021/04/23 00:03:38;;;;;;;10.30;9.00;;;;;;;11.17;70.55;99210.40;1756369;81;21183;-44
2021/04/23 00:06:29;;;;;;;10.32;9.13;;;;;;;11.11;70.71;99207.22;1730552;80;21171;-44
2021/04/23 00:09:02;;;;;;;10.80;8.60;;;;;;;11.08;70.91;99219.38;1699469;81;21123;-44
2021/04/23 00:11:40;;;;;;;12.15;9.20;;;;;;;10.97;71.18;99226.57;1759318;80;21167;-44
2021/04/23 00:14:09;;;;;;;10.58;9.38;;;;;;;10.83;71.67;99235.28;1745481;80;21281;-44
2021/04/23 00:16:38;;;;;;;10.20;9.20;;;;;;;10.69;72.18;99239.91;1712667;81;21202;-44
2021/04/23 00:19:09;;;;;;;13.40;9.85;;;;;;;10.61;72.63;99240.91;1750660;80;21622;-44
2021/04/23 00:21:38;;;;;;;11.20;9.38;;;;;;;10.65;72.69;99243.11;1740655;80;21175;-44
2021/04/23 00:24:08;;;;;;;11.10;9.45;;;;;;;10.69;72.69;99241.83;1740064;80;21187;-44
2021/04/23 00:26:38;;;;;;;11.15;9.48;;;;;;;10.70;72.83;99243.38;1745363;80;21381;-44
2021/04/23 00:29:06;;;;;;;8.75;7.78;;;;;;;10.70;72.85;99242.80;1708177;83;21171;-44
2021/04/23 00:31:35;;;;;;;12.35;7.75;;;;;;;10.71;72.73;99243.59;1744728;81;21171;-44
2021/04/23 00:34:04;;;;;;;9.55;8.23;;;;;;;10.69;72.71;99239.91;1762484;81;21167;-44
2021/04/23 00:36:31;;;;;;;10.72;8.38;;;;;;;10.69;72.82;99255.39;1741816;80;21795;-44
2021/04/23 00:39:00;;;;;;;9.20;7.60;;;;;;;10.65;73.07;99249.13;1730433;80;21391;-44
2021/04/23 00:41:32;;;;;;;9.98;7.87;;;;;;;10.61;73.21;99246.91;1719563;81;21610;-44
2021/04/23 00:44:00;;;;;;;9.23;7.53;;;;;;;10.58;73.36;99251.70;1746413;81;21174;-44
2021/04/23 00:46:31;;;;;;;9.35;8.10;;;;;;;10.59;73.40;99247.86;1753336;80;21171;-44
2021/04/23 00:49:00;;;;;;;10.48;9.40;;;;;;;10.57;73.39;99245.50;1707510;81;21170;-44
2021/04/23 00:51:44;;;;;;;10.18;8.80;;;;;;;10.51;73.48;99242.88;1741645;81;21874;-44
2021/04/23 00:54:13;;;;;;;11.25;9.08;;;;;;;10.46;73.63;99248.59;1709804;82;21171;-44
2021/04/23 00:56:43;;;;;;;10.18;8.75;;;;;;;10.43;73.77;99250.67;1729251;82;21163;-44
2021/04/23 00:59:12;;;;;;;11.00;9.90;;;;;;;10.47;73.76;99247.45;1723607;82;21578;-44
2021/04/23 01:01:57;;;;;;;10.82;9.73;;;;;;;10.49;73.68;99257.38;1718576;81;21211;-44
2021/04/23 01:04:28;;;;;;;12.10;10.18;;;;;;;10.44;73.75;99251.68;1717049;83;21212;-44
2021/04/23 01:06:55;;;;;;;12.43;11.12;;;;;;;10.38;73.94;99251.77;1721738;81;21182;-44
2021/04/23 01:09:27;;;;;;;12.20;9.75;;;;;;;10.35;74.12;99251.70;1732840;81;21175;-44
2021/04/23 01:11:57;;;;;;;13.98;10.43;;;;;;;10.38;74.13;99252.33;1717682;82;21009;-44
2021/04/23 01:14:26;;;;;;;11.57;10.38;;;;;;;10.43;74.21;99250.67;1780224;78;21146;-44
2021/04/23 01:16:54;;;;;;;13.35;10.90;;;;;;;10.41;74.29;99254.30;1771943;79;21237;-44
2021/04/23 01:19:24;;;;;;;11.53;9.58;;;;;;;10.43;74.30;99250.67;1774070;78;21561;-44
2021/04/23 01:21:53;;;;;;;11.03;9.88;;;;;;;10.40;74.31;99250.05;1803209;78;21025;-44
2021/04/23 01:24:21;;;;;;;11.50;9.55;;;;;;;10.45;74.32;99256.53;1772860;79;21202;-44
2021/04/23 01:26:53;;;;;;;11.85;10.63;;;;;;;10.49;74.20;99262.00;1738233;81;21668;-44
2021/04/23 01:29:21;;;;;;;11.95;10.13;;;;;;;10.42;74.32;99266.72;1737619;82;21347;-44
2021/04/23 01:31:53;;;;;;;10.25;8.93;;;;;;;10.38;74.46;99275.36;1743326;80;21776;-44
2021/04/23 01:34:30;;;;;;;11.75;8.48;;;;;;;10.38;74.53;99280.22;1720095;82;21619;-44
2021/04/23 01:36:59;;;;;;;9.90;7.92;;;;;;;10.34;73.99;99278.02;1739412;81;21159;-44
2021/04/23 01:39:28;;;;;;;11.55;6.45;;;;;;;10.27;73.55;99284.64;1729863;80;21179;-44
2021/04/23 01:41:57;;;;;;;7.33;5.40;;;;;;;10.14;70.61;99294.62;1754299;81;21295;-44
2021/04/23 01:44:26;;;;;;;8.15;5.20;;;;;;;9.92;67.65;99305.02;1736788;80;21731;-44
2021/04/23 01:46:55;;;;;;;11.78;5.40;;;;;;;9.67;65.64;99313.21;1772362;81;21074;-44
2021/04/23 01:49:23;;;;;;;7.70;5.35;;;;;;;9.48;65.79;99309.91;1774487;79;21191;-44
2021/04/23 01:51:58;;;;;;;9.73;5.33;;;;;;;9.28;65.18;99325.86;1735193;81;21513;-44
2021/04/23 01:54:27;;;;;;;7.03;4.92;;;;;;;9.08;65.68;99320.16;1738850;82;22227;-44
2021/04/23 01:56:55;;;;;;;9.88;4.95;;;;;;;8.53;65.87;99282.69;1737814;81;21167;-44
2021/04/23 01:59:24;;;;;;;9.63;5.72;;;;;;;8.68;66.41;99331.92;1743420;81;21150;-44
2021/04/23 02:01:52;;;;;;;9.90;5.42;;;;;;;8.61;67.25;99337.72;1804774;78;21508;-44
2021/04/23 02:04:20;;;;;;;10.70;5.42;;;;;;;8.57;66.69;99344.92;1791127;78;21142;-44
2021/04/23 02:06:51;;;;;;;11.05;5.85;;;;;;;8.51;66.68;99344.41;1790983;78;21064;-44
2021/04/23 02:09:18;;;;;;;11.68;5.35;;;;;;;8.40;66.74;99349.30;1807167;79;21012;-44
2021/04/23 02:11:48;;;;;;;8.85;5.55;;;;;;;8.28;67.42;99352.80;1785385;78;21051;-44
2021/04/23 02:14:16;;;;;;;7.83;4.85;;;;;;;8.19;67.94;99361.05;1794616;78;21845;-44
2021/04/23 02:16:45;;;;;;;11.18;4.83;;;;;;;8.16;68.33;99360.95;1731190;82;21135;-43
2021/04/23 02:19:14;;;;;;;10.45;4.85;;;;;;;8.19;68.83;99365.10;1745671;81;21375;-44
2021/04/23 02:21:43;;;;;;;6.72;5.00;;;;;;;8.21;68.37;99368.81;1743598;80;21195;-44
2021/04/23 02:24:11;;;;;;;7.65;4.90;;;;;;;8.16;68.50;99373.90;1750994;80;21178;-44
2021/04/23 02:26:40;;;;;;;7.62;5.35;;;;;;;8.09;68.51;99376.38;1786455;78;21158;-44
2021/04/23 02:29:11;;;;;;;8.03;5.17;;;;;;;8.03;68.19;99387.78;1747227;81;21153;-44
2021/04/23 02:31:40;;;;;;;8.38;5.17;;;;;;;7.92;68.37;99387.47;1733308;80;21345;-44
2021/04/23 02:34:12;;;;;;;7.33;4.78;;;;;;;7.86;68.56;99394.21;1788730;78;21589;-44
2021/04/23 02:36:41;;;;;;;6.85;4.45;;;;;;;7.81;68.47;99402.55;1751149;80;21562;-44
2021/04/23 02:39:12;;;;;;;8.73;4.47;;;;;;;7.75;68.46;99409.29;1799193;78;21147;-44
2021/04/23 02:41:43;;;;;;;9.30;4.42;;;;;;;7.59;68.28;99403.03;1801600;79;21166;-43
2021/04/23 02:44:10;;;;;;;9.63;4.40;;;;;;;7.42;68.67;99403.47;1783081;80;21193;-44
2021/04/23 02:46:41;;;;;;;8.98;3.77;;;;;;;7.29;68.88;99404.59;1785993;79;21008;-44
2021/04/23 02:49:08;;;;;;;10.65;4.55;;;;;;;7.22;69.53;99401.66;1747408;81;21124;-44
2021/04/23 02:51:41;;;;;;;7.62;4.12;;;;;;;7.20;69.56;99403.92;1786370;78;21735;-44
2021/04/23 02:54:09;;;;;;;9.93;4.55;;;;;;;7.14;70.20;99409.29;1782992;80;21157;-44
2021/04/23 02:56:38;;;;;;;6.62;3.92;;;;;;;7.09;70.45;99408.72;1778863;79;22233;-44
2021/04/23 02:59:06;;;;;;;9.98;4.47;;;;;;;7.03;70.58;99416.23;1772071;81;21202;-44
2021/04/23 03:01:46;;;;;;;7.50;4.00;;;;;;;7.04;70.91;99411.07;1775862;78;21609;-44
2021/04/23 03:04:15;;;;;;;9.08;4.15;;;;;;;7.10;70.98;99415.69;1798811;79;21162;-44
2021/04/23 03:06:43;;;;;;;7.03;3.90;;;;;;;7.17;71.22;99418.61;1737609;82;21171;-44
2021/04/23 03:09:11;;;;;;;7.08;4.00;;;;;;;7.20;71.18;99413.91;1764909;80;21210;-44
2021/04/23 03:11:41;;;;;;;8.35;4.30;;;;;;;7.22;71.29;99405.70;1735296;81;21171;-44
2021/04/23 03:14:09;;;;;;;10.83;4.53;;;;;;;7.26;71.18;99406.59;1713540;82;21651;-44
2021/04/23 03:16:39;;;;;;;7.72;3.90;;;;;;;7.31;71.19;99414.47;1737528;82;21208;-44
2021/04/23 03:19:11;;;;;;;6.75;4.20;;;;;;;7.38;70.89;99406.62;1736616;82;21153;-44
2021/04/23 03:21:40;;;;;;;6.53;4.10;;;;;;;7.40;70.95;99415.73;1743064;81;21247;-44
2021/04/23 03:24:09;;;;;;;9.45;4.15;;;;;;;7.42;70.91;99417.52;1737649;82;21197;-44
2021/04/23 03:26:39;;;;;;;9.58;4.05;;;;;;;7.46;70.84;99419.76;1730604;82;21570;-44
2021/04/23 03:29:07;;;;;;;7.30;3.67;;;;;;;7.49;70.44;99421.01;1734949;81;21632;-44
2021/04/23 03:31:35;;;;;;;6.65;3.75;;;;;;;7.49;70.62;99425.05;1739095;80;21142;-44
2021/04/23 03:34:04;;;;;;;8.68;4.20;;;;;;;7.52;70.69;99425.72;1715770;81;21200;-44
2021/04/23 03:36:32;;;;;;;10.05;4.42;;;;;;;7.54;70.63;99423.48;1738569;80;21850;-44
2021/04/23 03:39:00;;;;;;;7.15;3.80;;;;;;;7.54;70.67;99417.53;1703417;83;21026;-44
2021/04/23 03:41:31;;;;;;;7.78;4.22;;;;;;;7.56;70.61;99415.82;1736156;80;21150;-44
2021/04/23 03:43:59;;;;;;;7.50;3.95;;;;;;;7.56;70.08;99417.17;1787168;79;21096;-44
2021/04/23 03:46:28;;;;;;;7.17;3.35;;;;;;;7.51;70.23;99427.63;1790586;80;21610;-43
2021/04/23 03:48:56;;;;;;;6.83;3.90;;;;;;;7.49;70.18;99429.89;1802503;79;21158;-44
2021/04/23 03:51:24;;;;;;;6.78;3.80;;;;;;;7.49;70.13;99423.70;1729972;81;21175;-44
2021/04/23 03:53:53;;;;;;;7.30;4.15;;;;;;;7.49;70.01;99430.45;1764966;80;21170;-43
2021/04/23 03:56:21;;;;;;;6.37;3.92;;;;;;;7.45;69.97;99428.20;1716114;81;21182;-43
2021/04/23 03:58:50;;;;;;;5.67;4.00;;;;;;;7.41;70.08;99430.20;1787742;80;21412;-44
2021/04/23 04:01:21;;;;;;;9.75;3.72;;;;;;;7.38;70.09;99435.50;1741256;81;21199;-43
2021/04/23 04:03:50;;;;;;;6.83;3.83;;;;;;;7.37;70.55;99440.10;1744377;81;21194;-43
2021/04/23 04:06:18;;;;;;;8.40;4.33;;;;;;;7.48;70.28;99436.96;1739136;82;21203;-43
2021/04/23 04:08:48;;;;;;;8.55;4.25;;;;;;;7.52;69.90;99435.16;1774627;80;21593;-43
2021/04/23 04:11:17;;;;;;;8.23;4.25;;;;;;;7.52;69.99;99432.47;1769662;80;22278;-43
2021/04/23 04:13:47;;;;;;;7.62;4.05;;;;;;;7.51;70.09;99430.88;1759502;81;21126;-43
2021/04/23 04:16:14;;;;;;;6.72;4.03;;;;;;;7.55;70.09;99433.91;1744538;81;21194;-43
2021/04/23 04:18:43;;;;;;;8.15;3.72;;;;;;;7.61;69.89;99439.32;1756474;81;21117;-43
2021/04/23 04:21:12;;;;;;;6.33;3.58;;;;;;;7.69;69.61;99441.14;1761351;80;21193;-43
2021/04/23 04:23:40;;;;;;;8.35;4.25;;;;;;;7.78;69.58;99443.71;1768850;79;22296;-43
2021/04/23 04:26:08;;;;;;;6.42;4.08;;;;;;;7.80;69.33;99440.09;1741959;81;21157;-43
2021/04/23 04:28:36;;;;;;;6.70;3.62;;;;;;;7.79;69.26;99443.95;1739663;81;21155;-43
2021/04/23 04:31:04;;;;;;;11.28;4.05;;;;;;;7.76;69.59;99449.44;1751225;81;21131;-43
2021/04/23 04:33:34;;;;;;;6.80;3.75;;;;;;;7.79;69.60;99456.09;1750830;81;21149;-43
2021/04/23 04:36:02;;;;;;;6.92;3.47;;;;;;;7.89;69.37;99461.00;1752325;80;21478;-43
2021/04/23 04:38:30;;;;;;;7.95;4.00;;;;;;;8.01;69.15;99455.61;1758724;80;21218;-43
2021/04/23 04:40:58;;;;;;;5.95;3.50;;;;;;;8.09;68.83;99457.38;1753078;80;21163;-43
2021/04/23 04:43:28;;;;;;;5.78;3.50;;;;;;;8.17;69.01;99467.30;1762584;80;21186;-43
2021/04/23 04:45:56;;;;;;;7.70;3.60;;;;;;;8.27;68.85;99468.73;1752103;80;21601;-43
2021/04/23 04:48:24;;;;;;;7.12;3.60;;;;;;;8.34;68.64;99472.22;1768378;80;22350;-43
2021/04/23 04:50:59;;;;;;;7.45;4.20;;;;;;;8.37;68.21;99471.56;1760973;80;21165;-44
2021/04/23 04:53:26;;;;;;;8.95;4.03;;;;;;;8.38;68.11;99475.81;1761317;79;21855;-44
2021/04/23 04:55:57;;;;;;;10.38;5.17;;;;;;;8.46;67.92;99474.34;1754626;80;21138;-43
2021/04/23 04:58:29;;;;;;;8.70;4.55;;;;;;;8.53;67.26;99474.53;1749147;80;26904;-43
2021/04/23 05:01:06;;;;;;;10.82;5.20;;;;;;;8.59;67.34;99477.22;1784402;79;21159;-43
2021/04/23 05:03:35;;;;;;;5.87;4.22;;;;;;;8.63;66.95;99482.16;1765893;80;21640;-43
2021/04/23 05:06:04;;;;;;;8.85;4.20;;;;;;;8.61;67.08;99482.30;1741510;81;21571;-43
2021/04/23 05:08:32;;;;;;;10.40;4.00;;;;;;;8.65;67.21;99479.12;1770846;80;21178;-43
2021/04/23 05:11:01;;;;;;;6.35;3.80;;;;;;;8.75;67.35;99489.45;1800688;79;21150;-44
2021/04/23 05:13:29;;;;;;;5.08;3.20;;;;;;;8.81;66.97;99481.30;1798724;79;22195;-43
2021/04/23 05:15:58;;;;;;;8.13;3.98;;;;;;;8.82;66.09;99480.17;1785042;79;21190;-43
2021/04/23 05:18:26;;;;;;;6.75;3.62;;;;;;;8.84;66.59;99480.63;1737701;82;21642;-43
2021/04/23 05:20:54;;;;;;;7.35;4.00;;;;;;;8.88;65.79;99478.80;1756312;80;21591;-43
2021/04/23 05:23:23;;;;;;;7.60;3.60;;;;;;;8.81;65.48;99472.42;1732840;82;21155;-43
2021/04/23 05:25:52;;;;;;;7.40;4.00;;;;;;;8.79;66.48;99476.81;1720864;82;21379;-43
2021/04/23 05:28:19;;;;;;;7.17;3.60;;;;;;;8.86;66.64;99482.40;1754629;81;21175;-43
2021/04/23 05:30:48;;;;;;;8.43;4.72;;;;;;;8.94;65.84;99478.78;1737059;82;21052;-43
2021/04/23 05:33:16;;;;;;;11.33;5.90;;;;;;;8.99;65.09;99487.20;1750104;81;21182;-43
2021/04/23 05:35:45;;;;;;;9.07;5.37;;;;;;;8.93;65.58;99483.17;1750124;80;21122;-43
2021/04/23 05:38:13;;;;;;;8.93;5.03;;;;;;;8.94;66.36;99489.59;1726448;83;21638;-43
2021/04/23 05:40:45;;;;;;;11.40;4.65;;;;;;;9.01;65.92;99484.92;1765555;80;21193;-43
2021/04/23 05:43:14;;;;;;;7.40;3.90;;;;;;;9.06;65.87;99482.77;1790096;79;21537;-43
2021/04/23 05:45:43;;;;;;;8.60;4.28;;;;;;;9.10;66.07;99480.17;1772706;79;21625;-43
2021/04/23 05:48:14;;;;;;;6.87;3.83;;;;;;;9.14;66.29;99482.40;1790459;79;21155;-43
2021/04/23 05:50:42;;;;;;;8.55;4.10;;;;;;;9.11;64.96;99481.72;1786698;79;22210;-43
2021/04/23 05:53:11;;;;;;;12.00;6.80;;;;;;;9.07;65.27;99482.98;1748079;81;21176;-43
2021/04/23 05:55:39;;;;;;;11.90;4.97;;;;;;;9.03;65.06;99488.88;1751508;81;20973;-43
2021/04/23 05:58:07;;;;;;;5.95;3.37;;;;;;;9.02;65.33;99485.16;1717693;82;21156;-43
2021/04/23 06:00:35;;;;;;;8.93;4.95;;;;;;;9.08;65.01;99494.59;1731075;82;21148;-43
2021/04/23 06:03:06;;;;;;;9.33;4.72;;;;;;;9.13;65.61;99495.13;1727235;81;21390;-43
2021/04/23 06:05:34;;;;;;;6.05;4.00;;;;;;;9.20;65.33;99496.46;1722102;82;21325;-43
2021/04/23 06:08:07;;;;;;;5.37;3.60;;;;;;;9.26;65.43;99491.00;1740976;82;21630;-43
2021/04/23 06:12:08;;;;;;;6.72;3.27;;;;;;;9.39;64.94;99490.56;1821208;77;22631;-43
2021/04/23 06:14:37;;;;;;;8.18;3.85;;;;;;;9.38;65.16;99495.00;1794393;79;21766;-42
2021/04/23 06:17:07;;;;;;;5.90;3.60;;;;;;;9.48;65.04;99490.42;1788974;79;21203;-43
2021/04/23 06:19:35;;;;;;;5.70;3.40;;;;;;;9.59;64.54;99500.93;1792507;79;21282;-43
2021/04/23 06:22:06;;;;;;;10.00;4.10;;;;;;;9.64;63.58;99484.42;1798680;79;21032;-43
2021/04/23 06:24:34;;;;;;;9.85;3.35;;;;;;;9.62;64.14;99489.42;1793180;79;21020;-43
2021/04/23 06:27:03;;;;;;;8.43;3.80;;;;;;;9.73;63.02;99496.45;1793789;79;21038;-42
2021/04/23 06:29:33;;;;;;;5.25;3.45;;;;;;;9.81;62.09;99493.56;1793521;79;21255;-42
2021/04/23 06:32:01;;;;;;;7.45;3.77;;;;;;;9.79;62.24;99498.53;1787859;79;21000;-42
2021/04/23 06:34:29;;;;;;;7.78;3.77;;;;;;;9.77;61.29;99496.75;1785775;79;21617;-43
2021/04/23 06:36:57;;;;;;;6.70;3.80;;;;;;;9.77;62.60;99487.84;1809268;79;21098;-42
2021/04/23 06:39:26;;;;;;;6.35;3.83;;;;;;;9.88;63.21;99494.28;1789937;79;21541;-42
2021/04/23 06:41:54;;;;;;;5.90;3.42;;;;;;;10.00;63.38;99490.92;1782368;79;22275;-43
2021/04/23 06:44:22;;;;;;;5.90;3.83;;;;;;;10.09;61.68;99496.70;1783418;80;21179;-42
2021/04/23 06:46:50;;;;;;;6.33;3.50;;;;;;;10.12;62.56;99490.00;1796033;78;21134;-42
2021/04/23 06:49:18;;;;;;;6.92;3.75;;;;;;;10.19;60.84;99494.84;1806783;79;21799;-42
2021/04/23 06:51:46;;;;;;;7.22;3.52;;;;;;;10.19;60.32;99494.84;1802933;78;21177;-42
2021/04/23 06:54:16;;;;;;;6.22;3.22;;;;;;;10.16;60.21;99503.69;1809153;78;21191;-42
2021/04/23 06:56:44;;;;;;;;;;;;;;;10.12;60.79;99508.20;1793258;79;21565;-42
2021/04/23 06:59:12;;;;;;;4.37;2.98;;;;;;;10.11;58.98;99506.63;1783275;79;20194;-42
2021/04/23 07:01:40;;;;;;;6.97;3.67;;;;;;;10.03;58.79;99505.66;1787190;79;21173;-42
2021/04/23 07:04:08;;;;;;;6.20;3.20;;;;;;;10.08;59.46;99494.56;1807866;79;21130;-42
2021/04/23 07:06:39;;;;;;;5.40;2.65;;;;;;;10.17;59.26;99495.75;1792175;79;22303;-42
2021/04/23 07:09:07;;;;;;;4.53;2.80;;;;;;;10.19;59.25;99505.67;1797914;79;21162;-42
2021/04/23 07:11:35;;;;;;;4.90;2.77;;;;;;;10.19;58.01;99507.03;1750111;81;21198;-43
2021/04/23 07:14:04;;;;;;;6.15;3.00;;;;;;;10.12;58.67;99506.86;1727396;82;21376;-43
2021/04/23 07:16:32;;;;;;;4.20;3.08;;;;;;;10.09;59.44;99503.48;1764500;79;21149;-43
2021/04/23 07:19:00;;;;;;;7.22;3.40;;;;;;;10.10;58.45;99507.77;1773985;79;22259;-43
2021/04/23 07:21:29;;;;;;;6.28;3.50;;;;;;;10.08;57.94;99505.39;1751223;80;21213;-43
2021/04/23 07:23:57;;;;;;;5.40;3.70;;;;;;;10.04;59.26;99502.61;1753008;80;21013;-42
2021/04/23 07:26:25;;;;;;;5.97;3.50;;;;;;;10.04;59.53;99506.67;1760932;80;21205;-40
2021/04/23 07:28:53;;;;;;;5.10;3.30;;;;;;;10.06;58.94;99504.19;1763111;80;21932;-41
2021/04/23 07:31:22;;;;;;;5.50;3.62;;;;;;;10.04;58.30;99503.18;1762055;80;21185;-41
2021/04/23 07:33:50;;;;;;;6.62;3.55;;;;;;;10.03;58.04;99502.39;1766156;80;21171;-41
2021/04/23 07:36:18;;;;;;;6.42;4.05;;;;;;;10.02;57.88;99503.52;1759258;80;21115;-42
2021/04/23 07:38:46;;;;;;;9.50;3.83;;;;;;;9.97;57.42;99500.32;1757476;80;21199;-40
2021/04/23 07:41:15;;;;;;;9.35;5.33;;;;;;;9.98;58.19;99505.93;1753851;80;21542;-41
2021/04/23 07:43:43;;;;;;;8.68;4.60;;;;;;;10.10;58.26;99503.13;1765026;81;21362;-42
2021/04/23 07:46:10;;;;;;;7.35;4.60;;;;;;;10.20;59.28;99501.83;1749000;81;21012;-41
2021/04/23 07:48:38;;;;;;;9.80;4.67;;;;;;;10.31;58.78;99507.69;1745374;80;21147;-41
2021/04/23 07:51:07;;;;;;;7.60;4.95;;;;;;;10.39;58.64;99501.88;1729997;82;21174;-42
2021/04/23 07:53:35;;;;;;;8.23;5.03;;;;;;;10.48;58.36;99498.38;1747576;80;21548;-42
2021/04/23 07:56:04;;;;;;;8.20;4.75;;;;;;;10.59;59.24;99503.47;1753257;80;21453;-41
2021/04/23 07:58:31;;;;;;;8.23;4.75;;;;;;;10.78;58.68;99504.05;1780840;80;21160;-42
2021/04/23 08:01:00;;;;;;;7.87;4.60;;;;;;;10.96;57.24;99509.81;1768404;80;21141;-41
2021/04/23 08:03:32;;;;;;;9.08;4.25;;;;;;;11.14;57.49;99505.50;1752287;80;21590;-42
2021/04/23 08:06:00;;;;;;;11.97;4.40;;;;;;;11.32;56.71;99501.21;1747785;81;21629;-42
2021/04/23 08:08:29;;;;;;;10.88;4.22;;;;;;;11.47;55.06;99509.82;1744667;82;21278;-42
2021/04/23 08:10:58;;;;;;;5.95;3.47;;;;;;;11.57;54.90;99501.65;1754328;79;21588;-43
2021/04/23 08:13:26;;;;;;;6.47;3.72;;;;;;;11.68;55.44;99504.73;1773542;80;21165;-43
2021/04/23 08:15:55;;;;;;;9.48;3.65;;;;;;;11.72;55.69;99506.14;1760776;81;21214;-43
2021/04/23 08:18:25;;;;;;;10.58;3.98;;;;;;;11.71;55.33;99505.95;1771824;80;21080;-43
2021/04/23 08:20:54;;;;;;;;;;;;;;;11.66;54.80;99513.84;1775426;80;21642;-43
2021/04/23 08:23:22;;;;;;;7.37;3.75;;;;;;;11.67;53.68;99515.38;1779905;80;20282;-43
2021/04/23 08:25:56;;;;;;;7.03;4.08;;;;;;;11.64;54.54;99504.47;1771993;80;21203;-43
2021/04/23 08:28:23;;;;;;;5.87;3.65;;;;;;;11.71;53.75;99508.07;1764755;80;21205;-43
2021/04/23 08:30:52;;;;;;;6.45;3.72;;;;;;;11.77;53.82;99509.95;1758635;81;21592;-43
2021/04/23 08:33:21;;;;;;;8.05;3.67;;;;;;;11.87;53.28;99507.98;1760444;80;21369;-43
2021/04/23 08:35:49;;;;;;;6.83;4.00;;;;;;;11.92;52.24;99506.88;1765214;80;21007;-43
2021/04/23 08:38:18;;;;;;;8.68;4.12;;;;;;;11.93;51.23;99498.95;1779504;80;21174;-43
2021/04/23 08:40:47;;;;;;;4.30;3.10;;;;;;;11.90;52.96;99501.84;1767810;80;21111;-43
2021/04/23 08:43:15;;;;;;;9.08;3.70;;;;;;;11.97;53.20;99499.21;1781135;79;21191;-43
2021/04/23 08:45:43;;;;;;;4.70;3.45;;;;;;;12.07;53.18;99501.31;1753238;81;21473;-43
2021/04/23 08:48:12;;;;;;;5.67;2.87;;;;;;;12.18;52.02;99496.83;1754477;80;21664;-43
2021/04/23 08:50:40;;;;;;;9.00;3.80;;;;;;;12.19;51.05;99500.33;1774255;79;21194;-43
2021/04/23 08:53:09;;;;;;;8.20;3.50;;;;;;;12.13;51.79;99497.13;1779038;79;21144;-43
2021/04/23 08:55:38;;;;;;;6.70;3.80;;;;;;;12.10;51.39;99501.17;1780829;80;21159;-43
2021/04/23 08:58:09;;;;;;;5.92;3.75;;;;;;;12.14;52.43;99497.92;1778298;79;21428;-43
2021/04/23 09:00:37;;;;;;;10.20;4.12;;;;;;;12.43;53.02;99495.81;1771995;80;21162;-43
2021/04/23 09:03:08;;;;;;;7.15;3.72;;;;;;;12.90;52.11;99498.52;1783774;79;21181;-43
2021/04/23 09:05:36;;;;;;;9.25;3.80;;;;;;;13.32;48.09;99495.50;1737751;81;21735;-43
2021/04/23 09:08:07;;;;;;;9.48;4.17;;;;;;;13.64;48.80;99497.17;1773145;80;21252;-43
2021/04/23 09:10:38;;;;;;;6.42;3.70;;;;;;;13.80;47.80;99483.48;1779627;79;21385;-43
2021/04/23 09:13:13;;;;;;;7.62;3.80;;;;;;;13.84;46.68;99483.53;1750498;81;21029;-43
2021/04/23 09:15:44;;;;;;;8.93;4.17;;;;;;;13.83;47.38;99491.50;1754125;81;21184;-43
2021/04/23 09:18:17;;;;;;;7.53;3.70;;;;;;;13.76;47.57;99499.59;1757935;81;21172;-43
2021/04/23 09:20:48;;;;;;;9.28;4.17;;;;;;;13.64;47.62;99505.34;1747755;81;21886;-43
2021/04/23 09:23:22;;;;;;;7.97;3.77;;;;;;;13.41;46.26;99491.31;1759963;81;21388;-43
2021/04/23 09:25:57;;;;;;;9.00;3.70;;;;;;;13.19;46.96;99499.08;1761694;81;21144;-44
2021/04/23 09:28:39;;;;;;;6.97;3.60;;;;;;;13.01;47.09;99500.80;1765149;81;21623;-44
2021/04/23 09:31:30;;;;;;;6.97;3.85;;;;;;;12.87;47.81;99498.70;1770028;80;21638;-44
2021/04/23 09:34:02;;;;;;;9.28;3.72;;;;;;;12.79;46.95;99497.61;1738924;81;21186;-44
2021/04/23 09:36:36;;;;;;;7.92;4.12;;;;;;;12.68;47.46;99504.87;1763383;80;23578;-44
2021/04/23 09:39:24;;;;;;;9.28;4.37;;;;;;;12.55;47.49;99490.70;1756696;81;22169;-43
2021/04/23 09:42:02;;;;;;;6.95;3.72;;;;;;;12.47;47.65;99485.77;1765588;80;21838;-43
2021/04/23 09:44:40;;;;;;;;;;;;;;;12.38;47.49;99489.34;1748352;81;21060;-44
2021/04/23 09:47:20;;;;;;;8.98;4.12;;;;;;;12.24;47.67;99494.58;1740463;81;20283;-43
2021/04/23 09:49:54;;;;;;;;;;;;;;;12.04;49.17;99495.25;1785066;80;21405;-42
2021/04/23 09:52:22;;;;;;;9.65;3.45;;;;;;;12.05;49.08;99488.65;1773977;79;20289;-42
2021/04/23 09:54:53;;;;;;;7.67;4.20;;;;;;;11.96;49.35;99488.70;1770388;81;21193;-42
2021/04/23 09:57:31;;;;;;;7.62;3.70;;;;;;;11.96;49.19;99491.41;1757177;81;21132;-42
2021/04/23 10:00:07;;;;;;;7.15;4.08;;;;;;;11.92;48.78;99494.09;1770818;79;21368;-42
2021/04/23 10:02:35;;;;;;;5.83;3.30;;;;;;;11.92;49.07;99494.09;1770046;80;21438;-42
2021/04/23 10:05:06;;;;;;;7.72;3.35;;;;;;;11.96;48.51;99491.41;1769519;80;21654;-42
2021/04/23 10:07:35;;;;;;;7.22;3.70;;;;;;;12.01;47.91;99488.39;1756102;81;21399;-42
2021/04/23 10:10:13;;;;;;;5.43;3.27;;;;;;;12.14;47.27;99486.48;1771052;80;21135;-42
2021/04/23 10:12:57;;;;;;;8.85;4.12;;;;;;;12.33;47.18;99482.86;1763764;79;21442;-42
2021/04/23 10:15:29;;;;;;;6.05;3.50;;;;;;;12.60;46.13;99478.94;1779026;80;21417;-42
2021/04/23 10:17:59;;;;;;;6.58;3.67;;;;;;;12.86;45.17;99474.58;1774562;78;21170;-41
2021/04/23 10:20:30;;;;;;;9.30;3.45;;;;;;;13.11;44.32;99473.49;1770164;80;21163;-41
2021/04/23 10:23:00;;;;;;;6.47;3.35;;;;;;;13.35;42.45;99471.05;1768654;80;21558;-41
2021/04/23 10:25:28;;;;;;;6.17;3.52;;;;;;;13.59;41.84;99465.62;1764896;80;21661;-41
2021/04/23 10:27:58;;;;;;;6.47;3.65;;;;;;;13.76;41.53;99464.17;1780097;80;21699;-41
2021/04/23 10:30:30;;;;;;;8.75;3.95;;;;;;;13.84;40.13;99463.09;1778605;80;21078;-41
2021/04/23 10:33:02;;;;;;;9.38;3.40;;;;;;;13.87;40.23;99453.57;1758476;80;21457;-41
2021/04/23 10:35:30;;;;;;;5.60;3.45;;;;;;;13.94;40.08;99459.66;1775680;80;21186;-41
2021/04/23 10:38:11;;;;;;;6.62;3.00;;;;;;;14.00;37.98;99459.48;1774923;80;21565;-41
2021/04/23 10:40:40;;;;;;;6.53;2.85;;;;;;;13.93;37.65;99449.91;1775859;80;21359;-42
2021/04/23 10:43:14;;;;;;;10.35;3.47;;;;;;;13.84;38.44;99456.28;1783005;79;21166;-42
2021/04/23 10:46:06;;;;;;;7.55;3.40;;;;;;;13.80;38.32;99456.80;1773899;80;21136;-42
2021/04/23 10:48:38;;;;;;;7.10;3.17;;;;;;;13.68;38.35;99457.12;1767343;80;21649;-42
2021/04/23 10:51:12;;;;;;;7.15;3.22;;;;;;;13.48;38.64;99455.98;1769480;80;21151;-42
2021/04/23 10:53:46;;;;;;;6.53;3.17;;;;;;;13.09;39.63;99420.78;1772899;80;23018;-42
2021/04/23 10:56:29;;;;;;;5.00;3.00;;;;;;;13.33;40.31;99458.38;1771326;80;21059;-42
2021/04/23 10:59:03;;;;;;;6.20;3.85;;;;;;;13.32;39.98;99459.53;1735543;80;21597;-42
2021/04/23 11:01:40;;;;;;;9.13;3.67;;;;;;;13.32;38.81;99458.16;1773799;80;21068;-42
2021/04/23 11:04:14;;;;;;;7.70;3.60;;;;;;;13.29;39.92;99456.78;1774204;80;21145;-42
2021/04/23 11:06:54;;;;;;;7.95;3.33;;;;;;;13.22;38.70;99453.40;1779797;80;21341;-42
2021/04/23 11:09:24;;;;;;;5.30;2.80;;;;;;;13.17;39.16;99454.34;1728674;82;21222;-42
2021/04/23 11:12:14;;;;;;;7.45;3.45;;;;;;;13.11;39.62;99466.14;1761351;78;21211;-43
2021/04/23 11:14:44;;;;;;;8.00;3.37;;;;;;;13.05;40.36;99460.80;1760355;81;21151;-42
2021/04/23 11:17:22;;;;;;;6.97;3.00;;;;;;;12.94;40.51;99459.31;1772363;79;21174;-43
2021/04/23 11:19:51;;;;;;;6.22;3.27;;;;;;;12.94;41.16;99463.97;1779227;80;21605;-42
2021/04/23 11:22:26;;;;;;;8.37;3.33;;;;;;;12.97;40.43;99459.16;1744306;80;21223;-42
2021/04/23 11:25:20;;;;;;;6.95;2.85;;;;;;;13.02;40.46;99462.91;1741025;80;21219;-42
2021/04/23 11:28:07;;;;;;;6.30;2.50;;;;;;;13.09;40.19;99454.80;1738379;82;21151;-42
2021/04/23 11:30:57;;;;;;;;;;;;;;;13.11;39.72;99457.98;1729154;81;21162;-42
2021/04/23 11:33:50;;;;;;;5.87;2.65;;;;;;;13.11;37.72;99449.81;1731751;80;21365;-42
2021/04/23 11:36:29;;;;;;;6.37;3.17;;;;;;;12.94;36.96;99459.31;1765932;79;21596;-42
2021/04/23 11:39:07;;;;;;;5.83;2.95;;;;;;;12.85;40.14;99454.75;1764016;79;21199;-44
2021/04/23 11:41:35;;;;;;;5.03;2.55;;;;;;;12.80;41.18;99446.13;1741337;82;21154;-43
2021/04/23 11:44:24;;;;;;;7.97;2.95;;;;;;;12.73;40.65;99449.54;1776140;79;21743;-46
2021/04/23 11:46:53;;;;;;;;;;;;;;;12.70;40.49;99457.67;1772769;80;21283;-46
2021/04/23 11:49:22;;;;;;;6.40;2.90;;;;;;;12.62;40.00;99452.73;1768340;81;20246;-46
2021/04/23 11:51:52;;;;;;;5.60;2.83;;;;;;;12.48;40.34;99452.56;1771846;81;21795;-46
2021/04/23 11:54:33;;;;;;;7.67;2.85;;;;;;;12.44;40.27;99452.49;1770076;81;22226;-46